Hauptseite
METAR-TAF:

METAR-TAF

Flughäfen :

Flughafen Pisa

Pisa, Italien

Breite: 43-41N, Länge: 010-23E, Höhe: 2 m

Beobachtung

Neuester Wetterbericht von vor 43 Minuten, um 23:15 UTC
Wind 7 kt aus Ost/Südost
Temperatur 3°C
Luftfeuchtigkeit 100%
Luftdruck 1002 hPa
Sichtweite 10 km oder mehr
Aufgelockert bewölkt in der Höhe von 2500 ft
Durchbrochene Bewölkung in der Höhe von 5000 ft
Leichtregen

METAR: LIRP 222315Z 11007KT 9999 -RA SCT025 BKN050 03/03 Q1002 NOSIG

Zeit: 00:58 (23:58 UTC)

Prognose

Neuester Wetterbericht von vor 58 Minuten, um 23:00 UTC
Gültige Prognose vom 23 um 00 UTC bis 23 um 24 UTC
Wind 10 kt aus Ost
Sichtweite 10 km oder mehr
Aufgelockert bewölkt in der Höhe von 2500 ft
Durchbrochene Bewölkung in der Höhe von 5000 ft
Regen
Zeitweise
vom 23 um 00 UTC bis 23 um 06 UTC
Sichtweite: 5000 m
Regen, feuchter Dunst

TAF: LIRP 222300Z 2300/2324 10010KT 9999 RA SCT025 BKN050 TEMPO 2300/2306 5000 RA BR

Wetterbeobachtungen und Prognosen von mehr als 4000 Flughäfen (METAR und TAF Bericht).

Die verfügbaren Stationen werden durch gelbe und rote Markierungen auf der Karte dargestellt.

Führen Sie die Maus auf sie, um den Namen der Station zu sehen.

Darauf klicken, um die Beobachtung von Wetterbeobachtungen und Prognosen zu sehen.

Um die Karte zu ändern : klicken Sie auf den grünen Tasten mit einem schwarzen Kreuz Zum Vergrößern, auf den grünen Button mit einem Gedankenstrich zu verkleinern, oder auf die grünen Pfeile für benachbarte Karten.


METAR-TAF: